Time;durP1;ratioP1;P1;durP2;ratioP2;P2;SDS_P1;SDS_P2;PMS_P1;PMS_P2;Temp;Humidity;BMP_temperature;BMP_pressure;BME280_temperature;BME280_humidity;BME280_pressure;Samples;Min_cycle;Max_cycle;Signal;HPM_P1;HPM_P2
2021/10/31 00:01:25;;;;;;;17.60;12.32;;;10.90;99.90;;;;;;5050252;28;20335;-67
2021/10/31 00:03:51;;;;;;;16.02;12.00;;;10.80;99.90;;;;;;5050137;28;20075;-68
2021/10/31 00:06:17;;;;;;;15.07;12.05;;;10.80;99.90;;;;;;5051189;28;20024;-68
2021/10/31 00:08:43;;;;;;;15.68;12.00;;;10.90;99.90;;;;;;5051230;28;20048;-68
2021/10/31 00:11:09;;;;;;;18.85;12.63;;;10.80;99.90;;;;;;5048961;28;20496;-67
2021/10/31 00:13:35;;;;;;;16.63;12.32;;;10.80;99.90;;;;;;5050165;28;20029;-67
2021/10/31 00:16:02;;;;;;;15.77;12.05;;;10.80;99.90;;;;;;5050503;28;20021;-67
2021/10/31 00:18:28;;;;;;;16.95;12.15;;;10.80;99.90;;;;;;5051212;28;20052;-67
2021/10/31 00:20:53;;;;;;;17.55;12.38;;;10.90;99.90;;;;;;5050277;28;20036;-67
2021/10/31 00:23:19;;;;;;;18.77;12.32;;;10.90;99.90;;;;;;5049911;28;20029;-67
2021/10/31 00:25:45;;;;;;;15.25;11.80;;;10.90;99.90;;;;;;5051263;28;20403;-67
2021/10/31 00:28:10;;;;;;;13.70;12.20;;;10.90;99.90;;;;;;5049038;28;20049;-66
2021/10/31 00:30:36;;;;;;;16.15;11.98;;;10.90;99.90;;;;;;5051148;28;20115;-67
2021/10/31 00:33:02;;;;;;;17.42;12.05;;;10.90;99.90;;;;;;5050013;28;20111;-67
2021/10/31 00:35:28;;;;;;;13.38;11.20;;;10.90;99.90;;;;;;5050716;28;20056;-67
2021/10/31 00:37:53;;;;;;;16.50;13.20;;;11.00;99.90;;;;;;5032292;28;20075;-67
2021/10/31 00:40:21;;;;;;;18.83;12.50;;;11.00;99.90;;;;;;5050888;28;20029;-68
2021/10/31 00:42:46;;;;;;;15.10;11.98;;;11.00;99.90;;;;;;5050572;28;20466;-67
2021/10/31 00:45:12;;;;;;;15.82;12.38;;;11.00;99.90;;;;;;5048599;28;20058;-68
2021/10/31 00:47:38;;;;;;;18.30;11.45;;;10.90;99.90;;;;;;5051303;28;20103;-68
2021/10/31 00:50:05;;;;;;;15.43;12.20;;;11.00;99.90;;;;;;5050139;28;20025;-68
2021/10/31 00:52:31;;;;;;;18.23;12.80;;;10.90;99.90;;;;;;5051344;28;20033;-68
2021/10/31 00:54:58;;;;;;;17.85;12.70;;;10.90;99.90;;;;;;5048844;28;20466;-68
2021/10/31 00:57:25;;;;;;;15.45;11.60;;;10.90;99.90;;;;;;5049068;28;20037;-67
2021/10/31 00:59:51;;;;;;;16.95;12.48;;;10.80;99.90;;;;;;5049013;28;20055;-67
2021/10/31 01:02:17;;;;;;;17.67;12.60;;;10.80;99.90;;;;;;5050953;28;20040;-67
2021/10/31 01:04:53;;;;;;;15.50;11.80;;;10.70;99.90;;;;;;5050638;28;20021;-67
2021/10/31 01:07:34;;;;;;;18.00;12.07;;;10.70;99.90;;;;;;5050697;28;20033;-69
2021/10/31 01:10:21;;;;;;;14.20;11.50;;;10.70;99.90;;;;;;5050216;28;20422;-70
2021/10/31 01:13:07;;;;;;;18.50;12.32;;;10.70;99.90;;;;;;5050635;28;20033;-68
2021/10/31 01:15:53;;;;;;;20.73;11.63;;;10.70;99.90;;;;;;5053215;28;20033;-67
2021/10/31 01:18:33;;;;;;;13.18;11.10;;;10.80;99.90;;;;;;5054843;28;20048;-67
2021/10/31 01:21:18;;;;;;;17.92;11.75;;;10.70;99.90;;;;;;5053628;28;20029;-67
2021/10/31 01:23:49;;;;;;;21.73;12.90;;;10.70;99.90;;;;;;5052819;28;20086;-67
2021/10/31 01:26:42;;;;;;;15.43;12.48;;;10.70;99.90;;;;;;5054365;28;20042;-67
2021/10/31 01:29:37;;;;;;;15.10;12.43;;;10.70;99.90;;;;;;5052113;28;20064;-67
2021/10/31 01:32:29;;;;;;;23.30;13.30;;;10.70;99.90;;;;;;5029236;28;20033;-67
2021/10/31 01:35:02;;;;;;;18.50;12.48;;;10.70;99.90;;;;;;5052339;28;20031;-69
2021/10/31 01:37:56;;;;;;;15.05;11.48;;;10.70;99.90;;;;;;5053101;28;20105;-66
2021/10/31 01:40:33;;;;;;;14.82;12.35;;;10.80;99.90;;;;;;5054407;28;20091;-67
2021/10/31 01:43:19;;;;;;;19.17;12.15;;;10.80;99.90;;;;;;5053415;28;20055;-66
2021/10/31 01:46:09;;;;;;;15.77;13.02;;;10.80;99.90;;;;;;5053957;28;20029;-68
2021/10/31 01:48:57;;;;;;;15.95;11.60;;;10.80;99.90;;;;;;5052883;28;20027;-68
2021/10/31 01:51:35;;;;;;;16.50;12.25;;;10.80;99.90;;;;;;5052400;28;20025;-68
2021/10/31 01:54:04;;;;;;;14.63;11.52;;;10.70;99.90;;;;;;5053422;28;20025;-68
2021/10/31 01:56:34;;;;;;;15.93;11.30;;;10.70;99.90;;;;;;5054153;28;20108;-68
2021/10/31 01:59:05;;;;;;;13.70;11.18;;;10.70;99.90;;;;;;5051964;28;20470;-69
2021/10/31 02:01:34;;;;;;;32.70;12.88;;;10.70;99.90;;;;;;5052531;28;20032;-67
2021/10/31 02:04:05;;;;;;;18.70;11.63;;;10.80;99.90;;;;;;5051925;28;20142;-67
2021/10/31 02:06:34;;;;;;;18.67;12.65;;;10.80;99.90;;;;;;5036101;28;20052;-67
2021/10/31 02:09:01;;;;;;;17.40;12.38;;;10.60;99.90;;;;;;5034411;28;20039;-67
2021/10/31 02:11:27;;;;;;;15.57;11.15;;;10.60;99.90;;;;;;5032387;28;20127;-67
2021/10/31 02:13:54;;;;;;;19.67;12.13;;;10.80;99.90;;;;;;5032396;28;20041;-68
2021/10/31 02:16:22;;;;;;;16.73;11.73;;;10.80;99.90;;;;;;5033750;28;20192;-67
2021/10/31 02:18:50;;;;;;;14.43;12.00;;;10.80;99.90;;;;;;5032337;28;20487;-67
2021/10/31 02:21:20;;;;;;;21.00;12.02;;;11.00;99.90;;;;;;5031601;28;20139;-67
2021/10/31 02:23:47;;;;;;;13.88;11.52;;;10.90;99.90;;;;;;5033537;28;20095;-67
2021/10/31 02:26:14;;;;;;;15.18;12.02;;;11.00;99.90;;;;;;5032067;28;20455;-67
2021/10/31 02:28:51;;;;;;;18.48;12.20;;;10.90;99.90;;;;;;5033249;28;20088;-67
2021/10/31 02:31:18;;;;;;;20.33;13.73;;;10.90;99.90;;;;;;5032749;28;20057;-67
2021/10/31 02:33:43;;;;;;;18.00;11.38;;;10.90;99.90;;;;;;5033472;28;20068;-67
2021/10/31 02:36:09;;;;;;;17.50;12.70;;;10.80;99.90;;;;;;5032834;28;20056;-68
2021/10/31 02:38:34;;;;;;;16.42;11.52;;;10.90;99.90;;;;;;5033435;28;20064;-67
2021/10/31 02:41:00;;;;;;;16.38;12.23;;;11.00;99.90;;;;;;5032589;28;20079;-67
2021/10/31 02:43:26;;;;;;;16.35;11.77;;;11.00;99.90;;;;;;5033304;28;20063;-68
2021/10/31 02:45:51;;;;;;;17.05;12.27;;;11.00;99.90;;;;;;5033128;28;20113;-67
2021/10/31 02:48:18;;;;;;;17.70;12.85;;;11.00;99.90;;;;;;5032311;28;20562;-67
2021/10/31 02:50:45;;;;;;;19.38;14.50;;;10.90;99.90;;;;;;5031791;28;20036;-67
2021/10/31 02:53:20;;;;;;;16.55;12.57;;;10.90;99.90;;;;;;5030920;28;20189;-66
2021/10/31 02:55:45;;;;;;;18.00;12.27;;;10.80;99.90;;;;;;5032791;28;20025;-67
2021/10/31 02:58:52;;;;;;;18.58;13.70;;;10.90;99.90;;;;;;5030991;28;20041;-67
2021/10/31 03:01:19;;;;;;;14.95;12.00;;;10.90;99.90;;;;;;5030876;28;20143;-67
2021/10/31 03:03:46;;;;;;;16.65;12.40;;;10.90;99.90;;;;;;5032613;28;20029;-67
2021/10/31 03:06:12;;;;;;;16.02;11.82;;;10.90;99.90;;;;;;5032288;28;20030;-67
2021/10/31 03:08:38;;;;;;;17.80;13.63;;;10.90;99.90;;;;;;5032400;28;20430;-67
2021/10/31 03:11:08;;;;;;;19.40;14.23;;;10.80;99.90;;;;;;5030695;28;20032;-67
2021/10/31 03:13:34;;;;;;;20.73;14.43;;;10.80;99.90;;;;;;5032552;28;20029;-67
2021/10/31 03:16:00;;;;;;;18.30;13.38;;;10.80;99.90;;;;;;5031959;28;20112;-67
2021/10/31 03:18:26;;;;;;;17.48;13.90;;;10.80;99.90;;;;;;5032426;28;20068;-67
2021/10/31 03:20:52;;;;;;;23.05;16.08;;;10.80;99.90;;;;;;5032619;28;20411;-67
2021/10/31 03:23:18;;;;;;;22.17;16.15;;;10.80;99.90;;;;;;5032181;28;20033;-67
2021/10/31 03:25:43;;;;;;;22.48;16.25;;;10.70;99.90;;;;;;5033171;28;20026;-67
2021/10/31 03:28:09;;;;;;;19.33;15.00;;;10.70;99.90;;;;;;5032351;28;20475;-67
2021/10/31 03:30:35;;;;;;;23.85;16.10;;;10.70;99.90;;;;;;5031346;28;20404;-67
2021/10/31 03:33:01;;;;;;;22.10;14.50;;;10.70;99.90;;;;;;5031888;28;20044;-68
2021/10/31 03:35:27;;;;;;;24.33;15.60;;;10.70;99.90;;;;;;5030945;28;20072;-67
2021/10/31 03:37:53;;;;;;;24.40;14.75;;;10.70;99.90;;;;;;5032642;28;20041;-67
2021/10/31 03:40:19;;;;;;;19.27;14.20;;;10.60;99.90;;;;;;5031600;28;20029;-67
2021/10/31 03:42:45;;;;;;;21.75;13.63;;;10.60;99.90;;;;;;5031964;28;20032;-66
2021/10/31 03:45:12;;;;;;;22.73;14.20;;;10.60;99.90;;;;;;5031714;28;20037;-68
2021/10/31 03:47:46;;;;;;;16.90;12.95;;;10.70;99.90;;;;;;5030885;28;20025;-68
2021/10/31 03:50:14;;;;;;;20.88;13.90;;;10.70;99.90;;;;;;5031570;28;20025;-68
2021/10/31 03:52:40;;;;;;;19.90;12.93;;;10.60;99.90;;;;;;5030683;28;20033;-68
2021/10/31 03:55:07;;;;;;;17.50;12.82;;;10.60;99.90;;;;;;5031401;28;20033;-69
2021/10/31 03:57:34;;;;;;;22.83;14.15;;;10.60;99.90;;;;;;5032130;28;20445;-67
2021/10/31 04:00:00;;;;;;;25.42;14.57;;;10.60;99.90;;;;;;5030252;28;20041;-73
2021/10/31 04:02:26;;;;;;;18.23;12.45;;;10.50;99.90;;;;;;5031572;28;20033;-67
2021/10/31 04:04:51;;;;;;;24.77;15.35;;;10.60;99.90;;;;;;5032031;28;20297;-67
2021/10/31 04:07:17;;;;;;;17.50;12.98;;;10.60;99.90;;;;;;5031501;28;20511;-67
2021/10/31 04:09:43;;;;;;;22.80;13.10;;;10.60;99.90;;;;;;5031573;28;20101;-67
2021/10/31 04:12:08;;;;;;;20.67;14.68;;;10.50;99.90;;;;;;5030957;28;20025;-67
2021/10/31 04:14:34;;;;;;;20.55;15.05;;;10.50;99.90;;;;;;5031718;28;20463;-67
2021/10/31 04:16:59;;;;;;;22.17;14.73;;;10.40;99.90;;;;;;5031302;28;20021;-67
2021/10/31 04:19:26;;;;;;;22.80;15.45;;;10.50;99.90;;;;;;5031092;28;20025;-67
2021/10/31 04:21:51;;;;;;;20.10;15.30;;;10.40;99.90;;;;;;5029868;28;20490;-67
2021/10/31 04:24:17;;;;;;;19.58;15.43;;;10.40;99.90;;;;;;5028865;28;20033;-68
2021/10/31 04:26:43;;;;;;;19.45;15.05;;;10.40;99.90;;;;;;5031444;28;20447;-68
2021/10/31 04:29:09;;;;;;;18.80;15.25;;;10.40;99.90;;;;;;5030333;28;20052;-68
2021/10/31 04:31:35;;;;;;;22.13;17.02;;;10.30;99.90;;;;;;5031519;28;20152;-67
2021/10/31 04:34:01;;;;;;;24.25;17.00;;;10.30;99.90;;;;;;5031527;28;20371;-67
2021/10/31 04:36:26;;;;;;;20.88;16.35;;;10.30;99.90;;;;;;5030915;28;20030;-67
2021/10/31 04:38:55;;;;;;;20.92;16.15;;;10.30;99.90;;;;;;5031511;28;20108;-67
2021/10/31 04:41:23;;;;;;;21.13;16.45;;;10.30;99.90;;;;;;5030826;28;20104;-67
2021/10/31 04:43:48;;;;;;;24.95;16.83;;;10.20;99.90;;;;;;5031033;28;20030;-67
2021/10/31 04:46:14;;;;;;;23.67;16.80;;;10.30;99.90;;;;;;5030662;28;20074;-67
2021/10/31 04:48:40;;;;;;;22.08;16.33;;;10.20;99.90;;;;;;5033201;28;20422;-68
2021/10/31 04:51:05;;;;;;;24.75;17.30;;;10.20;99.90;;;;;;5036968;28;20490;-68
2021/10/31 04:53:31;;;;;;;20.65;16.63;;;10.20;99.90;;;;;;5037474;28;20052;-67
2021/10/31 04:55:56;;;;;;;20.30;16.73;;;10.20;99.90;;;;;;5035875;28;20132;-67
2021/10/31 04:58:22;;;;;;;23.35;17.13;;;10.20;99.90;;;;;;5036817;28;20040;-67
2021/10/31 05:00:48;;;;;;;22.38;16.98;;;10.20;99.90;;;;;;5037851;28;20043;-68
2021/10/31 05:03:13;;;;;;;21.70;16.13;;;10.20;99.90;;;;;;5035527;28;20026;-67
2021/10/31 05:05:39;;;;;;;22.40;17.95;;;10.20;99.90;;;;;;5036184;28;20033;-67
2021/10/31 05:08:05;;;;;;;29.67;16.88;;;10.10;99.90;;;;;;5036896;28;20018;-68
2021/10/31 05:10:31;;;;;;;24.17;16.63;;;10.20;99.90;;;;;;5036243;28;20382;-68
2021/10/31 05:12:57;;;;;;;26.85;16.23;;;10.10;99.90;;;;;;5037576;28;20029;-67
2021/10/31 05:15:22;;;;;;;18.98;15.48;;;10.10;99.90;;;;;;5037418;28;20025;-67
2021/10/31 05:17:49;;;;;;;22.95;16.55;;;10.10;99.90;;;;;;5037671;28;20179;-68
2021/10/31 05:20:15;;;;;;;20.67;16.23;;;10.10;99.90;;;;;;5037063;28;20035;-68
2021/10/31 05:22:41;;;;;;;23.35;17.67;;;10.10;99.90;;;;;;5037146;28;20104;-68
2021/10/31 05:25:08;;;;;;;23.27;15.88;;;10.00;99.90;;;;;;5037080;28;20037;-69
2021/10/31 05:27:35;;;;;;;22.58;16.05;;;10.00;99.90;;;;;;5037339;28;20065;-67
2021/10/31 05:30:02;;;;;;;22.92;16.95;;;10.00;99.90;;;;;;5036291;28;20033;-67
2021/10/31 05:32:35;;;;;;;21.67;16.38;;;10.00;99.90;;;;;;5036732;28;20475;-67
2021/10/31 05:35:03;;;;;;;26.20;17.30;;;10.00;99.90;;;;;;5036252;28;20052;-68
2021/10/31 05:37:38;;;;;;;22.63;16.70;;;10.00;99.90;;;;;;5035561;28;20069;-67
2021/10/31 05:40:06;;;;;;;22.85;16.75;;;10.00;99.90;;;;;;5037525;28;20057;-67
2021/10/31 05:42:32;;;;;;;20.55;16.83;;;10.00;99.90;;;;;;5037662;28;20053;-66
2021/10/31 05:44:58;;;;;;;22.73;16.08;;;10.10;99.90;;;;;;5036116;28;20032;-66
2021/10/31 05:47:24;;;;;;;20.83;15.45;;;10.10;99.90;;;;;;5036928;28;20383;-66
2021/10/31 05:49:50;;;;;;;22.00;15.93;;;10.10;99.90;;;;;;5036934;28;20449;-66
2021/10/31 05:52:16;;;;;;;21.33;15.80;;;10.10;99.90;;;;;;5035343;28;20033;-66
2021/10/31 05:54:42;;;;;;;20.63;15.70;;;10.20;99.90;;;;;;5035627;28;20356;-66
2021/10/31 05:57:07;;;;;;;20.90;16.77;;;10.20;99.90;;;;;;5036512;28;20037;-69
2021/10/31 05:59:33;;;;;;;21.30;16.00;;;10.20;99.90;;;;;;5036955;28;20494;-66
2021/10/31 06:01:59;;;;;;;19.77;15.40;;;10.20;99.90;;;;;;5032625;28;20121;-66
2021/10/31 06:04:25;;;;;;;20.73;15.45;;;10.30;99.90;;;;;;5033610;28;20108;-66
2021/10/31 06:06:51;;;;;;;23.88;16.90;;;10.30;99.90;;;;;;5033812;28;20026;-66
2021/10/31 06:09:17;;;;;;;19.08;15.38;;;10.20;99.90;;;;;;5032731;28;20029;-66
2021/10/31 06:11:43;;;;;;;21.85;15.65;;;10.30;99.90;;;;;;5033671;28;20076;-66
2021/10/31 06:14:11;;;;;;;25.27;16.35;;;10.30;99.90;;;;;;5033042;28;20112;-67
2021/10/31 06:16:36;;;;;;;21.45;16.17;;;10.30;99.90;;;;;;5032491;28;20523;-65
2021/10/31 06:19:02;;;;;;;22.27;16.92;;;10.30;99.90;;;;;;5033658;28;20065;-65
2021/10/31 06:21:27;;;;;;;20.30;14.38;;;10.40;99.90;;;;;;5032755;28;20060;-65
2021/10/31 06:23:53;;;;;;;27.10;17.27;;;10.40;99.90;;;;;;5033315;28;20498;-65
2021/10/31 06:26:19;;;;;;;19.60;15.27;;;10.40;99.90;;;;;;5032473;28;20076;-65
2021/10/31 06:28:44;;;;;;;19.35;15.02;;;10.50;99.90;;;;;;5031445;28;20098;-65
2021/10/31 06:31:10;;;;;;;19.88;15.63;;;10.50;99.90;;;;;;5032798;28;20029;-66
2021/10/31 06:33:35;;;;;;;23.05;16.33;;;10.50;99.90;;;;;;5031798;28;20033;-65
2021/10/31 06:36:01;;;;;;;21.08;16.70;;;10.60;99.90;;;;;;5033435;28;20030;-66
2021/10/31 06:38:27;;;;;;;21.70;16.30;;;10.70;99.90;;;;;;5032480;28;20121;-66
2021/10/31 06:40:52;;;;;;;23.15;16.63;;;10.70;99.90;;;;;;5033105;28;20048;-66
2021/10/31 06:43:18;;;;;;;22.45;17.08;;;10.70;99.90;;;;;;5032520;28;20030;-66
2021/10/31 06:45:44;;;;;;;20.02;15.50;;;10.70;99.90;;;;;;5033169;28;20021;-66
2021/10/31 06:48:10;;;;;;;18.45;15.77;;;10.80;99.90;;;;;;5031141;28;20030;-76
2021/10/31 06:50:36;;;;;;;19.02;15.63;;;10.80;99.90;;;;;;5033131;28;20076;-66
2021/10/31 06:53:02;;;;;;;19.90;16.15;;;10.80;99.90;;;;;;5032988;28;20373;-66
2021/10/31 06:55:28;;;;;;;19.77;16.20;;;10.90;99.90;;;;;;5031673;28;20112;-65
2021/10/31 06:57:55;;;;;;;22.90;16.85;;;10.90;99.90;;;;;;5032955;28;20113;-65
2021/10/31 07:00:21;;;;;;;20.42;15.60;;;10.90;99.90;;;;;;5032618;28;20022;-66
2021/10/31 07:02:47;;;;;;;20.75;15.23;;;11.00;99.90;;;;;;5032826;28;20060;-65
2021/10/31 07:05:14;;;;;;;21.38;16.25;;;11.10;99.90;;;;;;5030904;28;20025;-66
2021/10/31 07:07:39;;;;;;;21.08;15.75;;;11.30;99.90;;;;;;5031341;28;20021;-66
2021/10/31 07:10:05;;;;;;;19.35;15.15;;;11.40;99.90;;;;;;5032721;28;20029;-66
2021/10/31 07:12:31;;;;;;;18.90;14.82;;;11.50;99.90;;;;;;5031778;28;20507;-66
2021/10/31 07:14:57;;;;;;;23.25;16.30;;;11.60;99.90;;;;;;5031822;28;20030;-66
2021/10/31 07:17:22;;;;;;;24.70;16.98;;;11.80;99.90;;;;;;5047122;28;20040;-68
2021/10/31 07:19:48;;;;;;;21.33;14.65;;;11.90;99.90;;;;;;5073203;28;20032;-67
2021/10/31 07:22:18;;;;;;;19.20;12.90;;;12.10;99.90;;;;;;5058180;28;20114;-68
2021/10/31 07:24:49;;;;;;;23.25;17.23;;;12.80;99.90;;;;;;5059432;28;20029;-66
2021/10/31 07:27:16;;;;;;;17.85;14.98;;;12.90;99.90;;;;;;5059225;28;20067;-69
2021/10/31 07:29:41;;;;;;;22.30;16.52;;;12.90;99.90;;;;;;5062293;28;20138;-69
2021/10/31 07:32:08;;;;;;;18.10;14.63;;;13.00;99.90;;;;;;5060211;28;20028;-66
2021/10/31 07:34:34;;;;;;;24.63;15.07;;;13.10;99.90;;;;;;5055488;28;20141;-67
2021/10/31 07:37:00;;;;;;;19.27;14.23;;;13.50;99.90;;;;;;5071097;28;20104;-67
2021/10/31 07:39:27;;;;;;;16.60;14.13;;;13.70;99.90;;;;;;5053565;28;20033;-69
2021/10/31 07:41:53;;;;;;;18.50;12.68;;;13.90;99.90;;;;;;5054037;28;20025;-68
2021/10/31 07:44:19;;;;;;;18.75;13.02;;;14.30;99.90;;;;;;5050879;28;20501;-66
2021/10/31 07:46:45;;;;;;;14.65;11.68;;;14.70;99.90;;;;;;5050438;28;20143;-67
2021/10/31 07:49:10;;;;;;;15.52;9.60;;;15.30;99.90;;;;;;5064606;28;20024;-66
2021/10/31 07:51:37;;;;;;;12.77;8.43;;;15.60;99.90;;;;;;5047985;28;20059;-66
2021/10/31 07:54:02;;;;;;;16.77;11.23;;;16.40;99.90;;;;;;5050379;28;20033;-66
2021/10/31 07:56:32;;;;;;;14.68;10.52;;;16.40;99.90;;;;;;5044815;28;20032;-67
2021/10/31 07:58:58;;;;;;;13.20;9.35;;;16.90;99.90;;;;;;5049464;28;20040;-65
2021/10/31 08:01:24;;;;;;;14.52;9.77;;;17.30;99.90;;;;;;5042038;28;20020;-67
2021/10/31 08:03:52;;;;;;;11.88;9.25;;;17.60;99.90;;;;;;5046390;28;20044;-68
2021/10/31 08:06:18;;;;;;;15.00;9.25;;;17.70;99.90;;;;;;5049071;28;20037;-68
2021/10/31 08:08:44;;;;;;;13.98;9.88;;;17.80;99.90;;;;;;5048877;28;20446;-67
2021/10/31 08:11:10;;;;;;;23.13;9.15;;;18.10;99.90;;;;;;5050232;28;20062;-67
2021/10/31 08:13:38;;;;;;;21.52;10.20;;;18.20;99.90;;;;;;5049395;28;20025;-66
2021/10/31 08:16:04;;;;;;;13.73;9.48;;;17.80;99.90;;;;;;5048822;28;20104;-68
2021/10/31 08:18:30;;;;;;;11.75;8.60;;;18.20;99.90;;;;;;5048163;28;20098;-67
2021/10/31 08:20:56;;;;;;;11.07;9.23;;;18.50;99.90;;;;;;5048742;28;20025;-66
2021/10/31 08:23:21;;;;;;;12.05;9.32;;;18.50;99.90;;;;;;5048471;28;20397;-70
2021/10/31 08:25:49;;;;;;;9.95;7.82;;;18.60;99.90;;;;;;5048586;28;20032;-67
2021/10/31 08:28:17;;;;;;;11.70;7.35;;;18.70;99.90;;;;;;5048875;28;20098;-70
2021/10/31 08:30:55;;;;;;;10.57;7.30;;;18.90;99.90;;;;;;5050785;28;20379;-68
2021/10/31 08:33:25;;;;;;;7.70;6.85;;;19.20;99.90;;;;;;5050471;28;20024;-66
2021/10/31 08:35:51;;;;;;;8.02;6.72;;;19.30;99.90;;;;;;5050191;28;20434;-68
2021/10/31 08:38:18;;;;;;;10.23;7.32;;;19.40;99.90;;;;;;5049703;28;20048;-67
2021/10/31 08:40:47;;;;;;;11.07;6.95;;;19.60;99.90;;;;;;5049457;28;20489;-67
2021/10/31 08:43:13;;;;;;;6.75;5.85;;;19.80;99.90;;;;;;5049678;28;20093;-67
2021/10/31 08:45:40;;;;;;;6.80;5.55;;;19.80;99.90;;;;;;5048939;28;20494;-67
2021/10/31 08:48:05;;;;;;;7.05;5.70;;;19.70;99.90;;;;;;5049325;28;20032;-67
2021/10/31 08:50:31;;;;;;;6.25;4.80;;;19.70;99.90;;;;;;5050053;28;20132;-67
2021/10/31 08:52:57;;;;;;;6.97;5.10;;;19.90;99.90;;;;;;5049046;28;20033;-66
2021/10/31 08:55:23;;;;;;;7.30;4.93;;;20.30;99.90;;;;;;5048514;28;20386;-66
2021/10/31 08:57:49;;;;;;;8.70;4.85;;;20.80;99.90;;;;;;5049275;28;20029;-67
2021/10/31 09:00:15;;;;;;;7.18;4.80;;;21.00;99.90;;;;;;5049216;28;20425;-68
2021/10/31 09:02:41;;;;;;;7.78;4.95;;;20.90;99.90;;;;;;5048594;28;20029;-68
2021/10/31 09:05:09;;;;;;;5.95;4.93;;;21.10;99.90;;;;;;5050478;28;20079;-66
2021/10/31 09:07:35;;;;;;;8.65;5.13;;;21.10;99.90;;;;;;5048776;28;20025;-66
2021/10/31 09:10:01;;;;;;;7.40;5.88;;;21.20;99.90;;;;;;5049031;28;20029;-66
2021/10/31 09:12:27;;;;;;;8.48;4.95;;;20.90;99.90;;;;;;5049741;28;20044;-68
2021/10/31 09:14:54;;;;;;;6.50;4.72;;;20.80;99.90;;;;;;5050554;28;20021;-66
2021/10/31 09:17:20;;;;;;;8.05;7.22;;;20.60;99.90;;;;;;5049684;28;20374;-67
2021/10/31 09:19:46;;;;;;;8.23;5.25;;;21.00;99.90;;;;;;5049171;28;20025;-67
2021/10/31 09:22:12;;;;;;;7.75;5.18;;;21.20;99.90;;;;;;5050278;28;20017;-66
2021/10/31 09:24:37;;;;;;;6.82;5.03;;;21.80;99.90;;;;;;5049723;28;20040;-66
2021/10/31 09:27:03;;;;;;;6.47;5.18;;;21.70;99.90;;;;;;5050549;28;20466;-67
2021/10/31 09:29:30;;;;;;;6.93;5.47;;;21.60;99.90;;;;;;5050235;28;20379;-67
2021/10/31 09:31:57;;;;;;;5.75;5.07;;;21.50;99.10;;;;;;5050662;28;20021;-69
2021/10/31 09:34:24;;;;;;;6.78;5.93;;;20.90;99.90;;;;;;5050149;28;20470;-68
2021/10/31 09:36:50;;;;;;;6.40;4.90;;;20.90;99.90;;;;;;5054385;28;20036;-67
2021/10/31 09:39:16;;;;;;;6.15;4.53;;;20.90;99.90;;;;;;5054087;28;20032;-68
2021/10/31 09:41:41;;;;;;;5.28;3.92;;;21.80;99.90;;;;;;5052063;28;20116;-67
2021/10/31 09:44:21;;;;;;;4.03;3.65;;;21.90;99.90;;;;;;5052552;28;20040;-66
2021/10/31 09:46:47;;;;;;;4.90;3.70;;;22.40;98.80;;;;;;5052851;28;20029;-67
2021/10/31 09:49:13;;;;;;;5.28;3.80;;;21.80;99.70;;;;;;5052463;28;20394;-67
2021/10/31 09:51:47;;;;;;;4.03;3.72;;;22.60;99.50;;;;;;5051686;28;20453;-67
2021/10/31 09:54:13;;;;;;;4.75;3.72;;;22.10;99.40;;;;;;5053528;28;20037;-67
2021/10/31 09:56:39;;;;;;;4.40;3.92;;;22.60;98.80;;;;;;5051585;28;20052;-67
2021/10/31 09:59:10;;;;;;;5.88;4.07;;;22.50;98.60;;;;;;5053093;28;20021;-66
2021/10/31 10:04:28;;;;;;;9.27;4.30;;;21.30;99.90;;;;;;5053419;28;20044;-68
2021/10/31 10:06:55;;;;;;;3.90;3.40;;;21.00;99.90;;;;;;5053456;28;20021;-66
2021/10/31 10:09:21;;;;;;;5.68;3.88;;;20.80;99.90;;;;;;5051661;28;20036;-78
2021/10/31 10:11:47;;;;;;;4.68;3.88;;;20.60;99.90;;;;;;5053521;28;20218;-67
2021/10/31 10:14:23;;;;;;;5.97;3.88;;;20.50;99.90;;;;;;5053818;28;20163;-67
2021/10/31 10:16:57;;;;;;;5.10;4.35;;;20.20;99.90;;;;;;5052447;28;20398;-66
2021/10/31 10:19:30;;;;;;;4.57;4.03;;;20.10;99.90;;;;;;5051626;28;20490;-68
2021/10/31 10:21:59;;;;;;;9.18;5.55;;;19.70;99.90;;;;;;5053445;28;20028;-67
2021/10/31 10:24:25;;;;;;;7.35;3.72;;;19.80;99.90;;;;;;5051231;28;20095;-68
2021/10/31 10:26:56;;;;;;;5.43;4.40;;;20.10;99.90;;;;;;5052951;28;20457;-69
2021/10/31 10:29:31;;;;;;;13.88;5.18;;;19.90;99.90;;;;;;5053037;28;20032;-72
2021/10/31 10:32:00;;;;;;;5.70;4.40;;;19.70;99.90;;;;;;5053055;28;20057;-68
2021/10/31 10:34:38;;;;;;;5.30;3.88;;;19.70;99.90;;;;;;5052503;28;20120;-70
2021/10/31 10:37:07;;;;;;;4.93;3.72;;;19.90;99.90;;;;;;5053496;28;20021;-69
2021/10/31 10:39:34;;;;;;;5.05;3.40;;;19.50;99.90;;;;;;5052578;28;20116;-68
2021/10/31 10:42:00;;;;;;;5.00;4.50;;;19.20;99.90;;;;;;5051854;28;20033;-69
2021/10/31 10:44:34;;;;;;;4.53;4.10;;;19.10;99.90;;;;;;5051216;28;20062;-69
2021/10/31 10:47:12;;;;;;;5.35;4.25;;;19.50;99.90;;;;;;5052488;28;20025;-70
2021/10/31 10:49:41;;;;;;;9.13;3.90;;;20.20;99.90;;;;;;5052546;28;20060;-69
2021/10/31 10:52:23;;;;;;;4.00;3.30;;;20.20;99.90;;;;;;5051673;28;20086;-68
2021/10/31 10:54:51;;;;;;;4.45;3.63;;;20.20;99.90;;;;;;5053060;28;20087;-69
2021/10/31 10:57:17;;;;;;;4.38;3.92;;;19.90;99.90;;;;;;5051637;28;20037;-68
2021/10/31 10:59:43;;;;;;;5.47;4.05;;;20.10;99.90;;;;;;5050882;28;20348;-68
2021/10/31 11:02:15;;;;;;;4.70;3.53;;;20.00;99.90;;;;;;5052668;28;20028;-68
2021/10/31 11:04:46;;;;;;;5.07;3.92;;;19.60;99.90;;;;;;5051907;28;20443;-69
2021/10/31 11:07:13;;;;;;;6.03;3.78;;;19.60;99.90;;;;;;5052779;28;20021;-67
2021/10/31 11:09:45;;;;;;;3.97;3.60;;;19.50;99.90;;;;;;5050565;28;20373;-70
2021/10/31 11:12:30;;;;;;;3.85;3.47;;;19.30;99.90;;;;;;5052004;28;20497;-67
2021/10/31 11:15:00;;;;;;;6.78;4.32;;;19.20;99.90;;;;;;5051836;28;20052;-67
2021/10/31 11:17:27;;;;;;;7.53;3.85;;;19.20;99.90;;;;;;5051200;28;20442;-68
2021/10/31 11:19:54;;;;;;;7.35;4.00;;;19.10;99.90;;;;;;5052138;28;20120;-67
2021/10/31 11:22:21;;;;;;;4.82;3.65;;;19.20;99.90;;;;;;5051765;28;20497;-66
2021/10/31 11:24:48;;;;;;;8.30;4.18;;;18.90;99.90;;;;;;5050084;28;20037;-67
2021/10/31 11:27:17;;;;;;;4.60;4.03;;;18.90;99.90;;;;;;5050196;28;20053;-67
2021/10/31 11:29:44;;;;;;;6.28;4.35;;;19.10;99.90;;;;;;5049952;28;20411;-67
2021/10/31 11:32:14;;;;;;;9.52;5.05;;;19.00;99.90;;;;;;5051745;28;20020;-67
2021/10/31 11:34:48;;;;;;;4.45;4.03;;;19.00;99.90;;;;;;5051178;28;20029;-66
2021/10/31 11:37:17;;;;;;;4.78;4.05;;;19.00;99.90;;;;;;5050116;28;20495;-66
2021/10/31 11:39:44;;;;;;;5.38;3.92;;;18.90;99.90;;;;;;5050060;28;20025;-67
2021/10/31 11:42:13;;;;;;;5.25;3.72;;;18.70;99.90;;;;;;5050512;28;20032;-68
2021/10/31 11:45:00;;;;;;;4.75;3.40;;;18.60;99.90;;;;;;5049472;28;20123;-66
2021/10/31 11:47:29;;;;;;;6.35;3.85;;;18.30;99.90;;;;;;5051675;28;20025;-79
2021/10/31 11:50:04;;;;;;;4.10;3.67;;;18.40;99.90;;;;;;5051878;28;20029;-66
2021/10/31 11:52:43;;;;;;;4.10;3.30;;;18.50;99.90;;;;;;5049948;28;20029;-68
2021/10/31 11:55:30;;;;;;;6.95;4.03;;;18.20;99.90;;;;;;5049821;28;20219;-69
2021/10/31 11:58:22;;;;;;;4.82;3.67;;;18.20;99.90;;;;;;5049120;28;20121;-67
2021/10/31 12:00:50;;;;;;;7.03;3.85;;;18.30;99.90;;;;;;5050047;28;20095;-66
2021/10/31 12:03:50;;;;;;;5.00;3.50;;;18.10;99.90;;;;;;5050907;28;20029;-67
2021/10/31 12:06:15;;;;;;;6.93;3.65;;;18.20;99.90;;;;;;5047262;28;20131;-68
2021/10/31 12:08:44;;;;;;;5.25;3.70;;;18.10;99.90;;;;;;5050439;28;20478;-66
2021/10/31 12:11:10;;;;;;;5.10;2.75;;;18.10;99.90;;;;;;5051087;28;20103;-66
2021/10/31 12:13:48;;;;;;;4.78;3.30;;;18.20;99.90;;;;;;5050419;28;20464;-67
2021/10/31 12:16:15;;;;;;;7.45;3.97;;;18.20;99.90;;;;;;5050089;28;20179;-68
2021/10/31 12:18:45;;;;;;;4.75;3.35;;;18.30;99.90;;;;;;5049867;28;20025;-67
2021/10/31 12:21:19;;;;;;;4.03;2.70;;;18.30;99.90;;;;;;5050368;28;20021;-66
2021/10/31 12:23:59;;;;;;;3.40;2.50;;;18.20;99.90;;;;;;5049573;28;20341;-67
2021/10/31 12:26:31;;;;;;;6.13;3.07;;;18.20;99.90;;;;;;5050419;28;20419;-66
2021/10/31 12:29:14;;;;;;;5.47;2.50;;;18.20;99.90;;;;;;5050109;28;20121;-67
2021/10/31 12:31:56;;;;;;;6.10;3.65;;;18.20;99.90;;;;;;5049915;28;20083;-67
2021/10/31 12:34:27;;;;;;;3.97;2.40;;;18.10;99.90;;;;;;5048875;28;20029;-66
2021/10/31 12:36:54;;;;;;;5.18;2.90;;;18.10;99.90;;;;;;5050294;28;20087;-66
2021/10/31 12:39:31;;;;;;;3.30;2.55;;;18.10;99.90;;;;;;5049056;28;20025;-67
2021/10/31 12:42:20;;;;;;;3.10;2.35;;;18.10;99.90;;;;;;5050333;28;20079;-67
2021/10/31 12:45:01;;;;;;;3.20;2.47;;;18.10;99.90;;;;;;5049696;28;20033;-67